Appel, Jennifer
United StatesWomanBorn 19732007 – 2025Runner id 36140
Events
59
58 race dates
Best pace
9.585
km/h · 2011
Best finish
5th
of 67 · 2011
Distance raced
5,382
km · splits not double-counted
Pace over time
km/h · higher is faster
Pace over time: 59 races from 2007 to 2025, ranging from 2.09 to 9.68 kilometres per hour, where higher is faster. A second, age-graded series is drawn above it; the gap between the two is the age credit.
- Actual pace
- Age-graded pace
Results
| Date | Event | Distance | Result | Pace km/h | Placing |
|---|---|---|---|---|---|
| 2007-02-03 | Pigtails Run 50KUnited States | 50km | 6:15:52 h | 7.982 | 40/44 |
| 2007-11-03 | 50km | 7:22:10 h | 6.785 | 44/50 | |
| 2007-12-22 | 50km | 6:03:58 h | 8.243 | 39/42 | |
| 2008-02-03 | Lord Hill Trail RunUnited States | 50km | 7:33:00 h | 6.623 | 29/30 |
| 2008-03-15 | Pacific Rim One DayUnited States | 24h | 80.467 km | 3.353 | 19/43 |
| 2008-10-25 | 12h | 49.696 km | 4.141 | 21/18 | |
| 2008-11-15 | 50mi | 9:37:47 h | 8.356 | 20/32 | |
| 2009-03-21 | Pacific Rim One DayUnited States | 24h | 100.000 km | 4.167 | 23/49 |
| 2009-04-25 | 50mi | 12:43:57 h | 6.320 | 40/43 | |
| 2009-05-16 | Watershed Preserve 12 Hr Trail RaceUnited States | 12h | 81.336 km | 6.778 | 28/66 |
| 2009-06-06 | 50mi | 10:16:21 h | 7.833 | 1/5 | |
| 2009-06-06 | Blanchard Mountain Trail UltraUnited States | 50km | 8:24:00 h | 5.952 | 17/17 |
| 2009-07-25 | 50mi | 13:26:16 h | 5.988 | 161/166 | |
| 2010-03-20 | 24h | 112.654 km | 4.694 | 25/73 | |
| 2010-04-09 | 50mi | 13:22:00 h | 6.020 | 24/26 | |
| 2010-05-15 | 12h | 56.536 km | 4.711 | 64/80 | |
| 2010-08-15 | 12h | 78.471 km | 6.539 | 11/40 | |
| 2010-10-16 | 50km | 6:09:57 h | 8.109 | 59/97 | |
| 2011-01-22 | Pigtails Run 50KUnited States | 50km | 5:13:23 h | 9.573 | 31/84 |
| 2011-02-05 | 50km | 8:33:24 h | 5.843 | 110/129 | |
| 2011-02-19 | 50km | 5:13:00 h | 9.585 | 16/25 | |
| 2011-03-19 | 24h | 162.543 km | 6.773 | 5/67 | |
| 2011-04-10 | 50km | 5:30:26 h | 9.079 | 32/79 | |
| 2011-04-30 | 50mi | 11:42:19 h | 6.874 | 75/82 | |
| 2011-05-14 | 12h | 88.819 km | 7.402 | 16/68 | |
| 2011-06-04 | 50mi | 9:50:48 h | 8.172 | 12/53 | |
| 2011-07-30 | 50mi | 11:39:38 h | 6.901 | 175/244 | |
| 2011-08-27 | 100mi | 29:47:25 h | 5.402 | 80/106 | |
| 2012-02-04 | 50km | 8:08:26 h | 6.142 | 142/171 | |
| 2012-03-17 | 24h | 80.467 km | 3.353 | 32/65 | |
| 2012-04-22 | 50mi | 9:17:43 h | 8.657 | 17/39 | |
| 2012-05-24 | Pigtails Challenge 100 MileUnited States | 100mi | 25:28:00 h | 6.319 | 15/36 |
| 2013-03-16 | 24h | 53.108 km | 2.213 | 37/51 | |
| 2013-04-27 | 55km | 7:48:48 h | 7.039 | 40/51 | |
| 2013-05-18 | 12h | 56.536 km | 4.711 | 41/64 | |
| 2013-07-27 | 50mi | 13:04:02 h | 6.158 | 268/286 | |
| 2016-01-30 | Lake Youngs Nuts RunUnited States | 50km | 6:07:38 h | 8.160 | 25/37 |
| 2021-06-05 | 50km | 6:57:56 h | 7.178 | 47/69 | |
| 2021-06-26 | 100km | 19:12:39 h | 5.205 | 11/21 | |
| 2021-09-05 | 13h | 94.178 km | 7.244 | 5/15 | |
| 2021-12-28 | 72h | 283.281 km | 3.934 | 4/51 | |
| 2022-03-19 | 24h | 54.717 km | 2.280 | 62/78 | |
| 2022-05-07 | 50km | 6:23:30 h | 7.823 | 20/26 | |
| 2022-06-18 | 50km | 7:39:58 h | 6.522 | 24/24 | |
| 2022-07-14 | Last Annual Vol-State 500K Endurance RunUnited States | 500km | 8d 05:55:59 h | 2.526 | 54/86 |
| 2022-09-24 | 50mi | 10:32:47 h | 7.630 | 52/95 | |
| 2022-12-10 | 50km | 6:41:44 h | 7.468 | 25/27 | |
| 2022-12-28 | 48h | 214.147 km | 4.461 | 9/76 | |
| 2023-01-21 | 50km | 7:54:46 h | 6.319 | 63/67 | |
| 2023-03-11 | 12h | 51.499 km | 4.292 | 28/42 |
Showing 1–50 of 59